Time;durP1;ratioP1;P1;durP2;ratioP2;P2;SDS_P1;SDS_P2;PMS_P1;PMS_P2;Temp;Humidity;BMP_temperature;BMP_pressure;BME280_temperature;BME280_humidity;BME280_pressure;Samples;Min_cycle;Max_cycle;Signal;HPM_P1;HPM_P2
2024/01/08 00:01:01;;;;;;;4.20;2.47;;;;;;;;;;4950099;28;20459;-68
2024/01/08 00:03:27;;;;;;;4.27;2.93;;;;;;;;;;4953029;28;20232;-68
2024/01/08 00:05:52;;;;;;;4.00;3.03;;;;;;;;;;4952442;28;20196;-68
2024/01/08 00:08:17;;;;;;;3.43;2.67;;;;;;;;;;4949145;28;20251;-67
2024/01/08 00:10:42;;;;;;;3.87;2.70;;;;;;;;;;4949484;28;20625;-68
2024/01/08 00:13:09;;;;;;;4.10;3.03;;;;;;;;;;4952585;28;20196;-68
2024/01/08 00:15:34;;;;;;;4.87;2.53;;;;;;;;;;4951294;28;20177;-68
2024/01/08 00:18:00;;;;;;;4.23;2.60;;;;;;;;;;4951763;28;20189;-68
2024/01/08 00:20:25;;;;;;;4.67;2.80;;;;;;;;;;4951450;28;20219;-68
2024/01/08 00:22:50;;;;;;;4.03;2.90;;;;;;;;;;4951076;28;20196;-68
2024/01/08 00:25:15;;;;;;;5.50;2.90;;;;;;;;;;4951226;28;20672;-68
2024/01/08 00:27:41;;;;;;;4.53;3.30;;;;;;;;;;4952667;28;20201;-68
2024/01/08 00:30:06;;;;;;;4.33;2.80;;;;;;;;;;4950404;28;20602;-68
2024/01/08 00:32:31;;;;;;;4.33;2.90;;;;;;;;;;4952011;28;20173;-68
2024/01/08 00:34:57;;;;;;;6.10;3.30;;;;;;;;;;4951254;28;20659;-68
2024/01/08 00:37:22;;;;;;;3.80;3.23;;;;;;;;;;4951407;28;20541;-68
2024/01/08 00:39:47;;;;;;;3.23;2.60;;;;;;;;;;4953095;28;20173;-68
2024/01/08 00:42:12;;;;;;;3.63;3.00;;;;;;;;;;4953196;28;20608;-68
2024/01/08 00:44:37;;;;;;;4.60;3.20;;;;;;;;;;4948845;28;20220;-69
2024/01/08 00:47:03;;;;;;;3.73;2.83;;;;;;;;;;4944418;28;20184;-68
2024/01/08 00:49:28;;;;;;;4.30;2.60;;;;;;;;;;4952649;28;20228;-68
2024/01/08 00:51:53;;;;;;;4.23;3.03;;;;;;;;;;4950763;28;20421;-68
2024/01/08 00:54:18;;;;;;;3.93;3.23;;;;;;;;;;4952894;28;20189;-67
2024/01/08 00:56:43;;;;;;;5.33;3.13;;;;;;;;;;4952595;28;20172;-68
2024/01/08 00:59:09;;;;;;;4.23;3.23;;;;;;;;;;4953325;28;20181;-68
2024/01/08 01:01:34;;;;;;;4.90;3.73;;;;;;;;;;4953381;28;20211;-68
2024/01/08 01:04:00;;;;;;;5.43;4.43;;;;;;;;;;4950114;28;20299;-67
2024/01/08 01:06:25;;;;;;;5.27;3.97;;;;;;;;;;4952010;28;20192;-67
2024/01/08 01:08:50;;;;;;;5.60;4.10;;;;;;;;;;4951261;28;20204;-68
2024/01/08 01:11:16;;;;;;;6.00;3.80;;;;;;;;;;4951282;28;20632;-68
2024/01/08 01:13:41;;;;;;;4.50;3.30;;;;;;;;;;4952422;28;20205;-68
2024/01/08 01:16:07;;;;;;;5.93;3.87;;;;;;;;;;4949567;28;20181;-68
2024/01/08 01:18:32;;;;;;;4.50;3.40;;;;;;;;;;4953056;28;20279;-68
2024/01/08 01:20:57;;;;;;;4.40;3.33;;;;;;;;;;4952945;28;20205;-68
2024/01/08 01:23:23;;;;;;;4.80;3.00;;;;;;;;;;4951900;28;20714;-68
2024/01/08 01:25:48;;;;;;;4.93;3.47;;;;;;;;;;4952545;28;20184;-68
2024/01/08 01:28:13;;;;;;;5.37;3.07;;;;;;;;;;4947636;28;20315;-68
2024/01/08 01:30:38;;;;;;;6.70;3.43;;;;;;;;;;4952580;28;20193;-68
2024/01/08 01:33:03;;;;;;;5.03;3.60;;;;;;;;;;4948898;28;20192;-68
2024/01/08 01:35:29;;;;;;;4.93;3.23;;;;;;;;;;4943834;28;20184;-68
2024/01/08 01:37:57;;;;;;;5.57;3.93;;;;;;;;;;4949628;28;20181;-67
2024/01/08 01:40:23;;;;;;;3.60;2.70;;;;;;;;;;4947828;28;20288;-68
2024/01/08 01:42:49;;;;;;;4.80;3.30;;;;;;;;;;4951839;28;20648;-68
2024/01/08 01:45:14;;;;;;;6.63;3.60;;;;;;;;;;4952560;28;20197;-67
2024/01/08 01:47:40;;;;;;;5.37;3.47;;;;;;;;;;4952679;28;20207;-68
2024/01/08 01:50:06;;;;;;;6.50;3.93;;;;;;;;;;4953339;28;20287;-68
2024/01/08 01:52:31;;;;;;;5.90;3.60;;;;;;;;;;4953222;28;20193;-68
2024/01/08 01:54:56;;;;;;;5.27;4.00;;;;;;;;;;4954323;28;20177;-68
2024/01/08 01:57:21;;;;;;;4.43;3.47;;;;;;;;;;4953190;28;20228;-68
2024/01/08 01:59:47;;;;;;;5.57;3.60;;;;;;;;;;4954277;28;20652;-68
2024/01/08 02:02:14;;;;;;;5.27;3.17;;;;;;;;;;4952178;28;20188;-67
2024/01/08 02:04:40;;;;;;;4.23;3.17;;;;;;;;;;4955177;28;20269;-68
2024/01/08 02:07:06;;;;;;;4.33;3.43;;;;;;;;;;4952882;28;20189;-68
2024/01/08 02:09:31;;;;;;;5.80;3.47;;;;;;;;;;4952517;28;20240;-68
2024/01/08 02:11:56;;;;;;;4.73;3.57;;;;;;;;;;5025242;23;20238;-73
2024/01/08 02:14:21;;;;;;;4.93;3.03;;;;;;;;;;5030524;28;20178;-73
2024/01/08 02:16:48;;;;;;;6.67;3.03;;;;;;;;;;5013542;28;20184;-73
2024/01/08 02:19:13;;;;;;;4.20;2.97;;;;;;;;;;5011646;28;20181;-73
2024/01/08 02:21:38;;;;;;;4.80;3.00;;;;;;;;;;5013176;28;20285;-73
2024/01/08 02:24:04;;;;;;;4.97;3.23;;;;;;;;;;5015198;28;20178;-72
2024/01/08 02:26:29;;;;;;;5.20;3.20;;;;;;;;;;5028432;28;20232;-73
2024/01/08 02:28:55;;;;;;;5.63;3.37;;;;;;;;;;5031256;28;20263;-72
2024/01/08 02:31:20;;;;;;;4.40;3.07;;;;;;;;;;5029839;28;20252;-72
2024/01/08 02:33:45;;;;;;;6.70;3.37;;;;;;;;;;5032474;28;20191;-72
2024/01/08 02:36:11;;;;;;;4.43;3.10;;;;;;;;;;5030528;28;20673;-72
2024/01/08 02:38:36;;;;;;;5.97;3.23;;;;;;;;;;5032238;28;20178;-73
2024/01/08 02:41:01;;;;;;;5.37;3.00;;;;;;;;;;5031823;28;20210;-72
2024/01/08 02:43:27;;;;;;;5.80;3.43;;;;;;;;;;5032141;28;20561;-73
2024/01/08 02:45:52;;;;;;;5.97;3.40;;;;;;;;;;5031754;28;20174;-73
2024/01/08 02:48:17;;;;;;;4.07;3.10;;;;;;;;;;5029319;28;20681;-73
2024/01/08 02:50:42;;;;;;;7.33;3.90;;;;;;;;;;5036285;28;20202;-72
2024/01/08 02:53:08;;;;;;;5.90;3.40;;;;;;;;;;5034857;28;20189;-72
2024/01/08 02:55:33;;;;;;;4.47;3.13;;;;;;;;;;5031095;28;20180;-73
2024/01/08 02:58:02;;;;;;;3.37;2.63;;;;;;;;;;5030991;28;20281;-72
2024/01/08 03:00:27;;;;;;;4.30;2.93;;;;;;;;;;5031828;28;20289;-73
2024/01/08 03:02:52;;;;;;;6.77;3.70;;;;;;;;;;5030648;28;20265;-72
2024/01/08 03:05:18;;;;;;;4.30;3.30;;;;;;;;;;5031669;28;20174;-72
2024/01/08 03:07:43;;;;;;;6.30;3.73;;;;;;;;;;5030334;28;20227;-73
2024/01/08 03:10:08;;;;;;;6.97;4.30;;;;;;;;;;5031302;28;20170;-74
2024/01/08 03:12:33;;;;;;;4.87;3.27;;;;;;;;;;5032637;28;20185;-72
2024/01/08 03:14:59;;;;;;;6.10;3.20;;;;;;;;;;5029479;28;20186;-73
2024/01/08 03:17:24;;;;;;;3.77;2.60;;;;;;;;;;5031258;28;20186;-73
2024/01/08 03:19:49;;;;;;;5.97;3.53;;;;;;;;;;5029755;28;20663;-73
2024/01/08 03:22:14;;;;;;;4.93;2.90;;;;;;;;;;5029598;28;20252;-73
2024/01/08 03:24:39;;;;;;;6.73;3.50;;;;;;;;;;5031352;28;20193;-73
2024/01/08 03:27:05;;;;;;;5.33;3.20;;;;;;;;;;5012384;28;20693;-73
2024/01/08 03:29:30;;;;;;;4.30;3.40;;;;;;;;;;5029939;28;20183;-73
2024/01/08 03:31:55;;;;;;;18.27;3.97;;;;;;;;;;5030720;28;20190;-73
2024/01/08 03:34:20;;;;;;;5.93;3.83;;;;;;;;;;5031143;28;20549;-73
2024/01/08 03:36:48;;;;;;;5.40;3.37;;;;;;;;;;5027869;28;20653;-73
2024/01/08 03:39:14;;;;;;;8.40;3.50;;;;;;;;;;5031249;28;20183;-73
2024/01/08 03:41:40;;;;;;;6.40;3.20;;;;;;;;;;5013494;28;20898;-73
2024/01/08 03:44:05;;;;;;;4.60;3.10;;;;;;;;;;5016214;28;20676;-73
2024/01/08 03:46:31;;;;;;;5.67;3.50;;;;;;;;;;5038834;28;20191;-72
2024/01/08 03:48:56;;;;;;;4.83;3.43;;;;;;;;;;5012370;28;20210;-73
2024/01/08 03:51:21;;;;;;;6.73;3.90;;;;;;;;;;5008837;28;20209;-73
2024/01/08 03:53:46;;;;;;;9.70;3.93;;;;;;;;;;5029598;28;20178;-73
2024/01/08 03:56:11;;;;;;;4.53;3.47;;;;;;;;;;5011079;28;20186;-72
2024/01/08 03:58:37;;;;;;;6.83;4.13;;;;;;;;;;5012668;28;20205;-73
2024/01/08 04:01:03;;;;;;;6.57;4.00;;;;;;;;;;5012469;28;20589;-73
2024/01/08 04:03:29;;;;;;;6.23;3.83;;;;;;;;;;5034031;28;20228;-73
2024/01/08 04:05:54;;;;;;;7.53;4.10;;;;;;;;;;5028933;28;20206;-73
2024/01/08 04:08:20;;;;;;;7.47;3.87;;;;;;;;;;5012158;28;20209;-73
2024/01/08 04:10:45;;;;;;;7.27;3.63;;;;;;;;;;5029134;28;20224;-74
2024/01/08 04:13:10;;;;;;;6.37;3.80;;;;;;;;;;5014197;28;20265;-73
2024/01/08 04:15:35;;;;;;;8.37;4.40;;;;;;;;;;5030202;28;20182;-72
2024/01/08 04:18:00;;;;;;;4.93;3.27;;;;;;;;;;5011385;28;20201;-72
2024/01/08 04:20:26;;;;;;;6.73;4.33;;;;;;;;;;5030361;28;20289;-72
2024/01/08 04:22:51;;;;;;;6.50;4.80;;;;;;;;;;5030488;28;20209;-73
2024/01/08 04:25:16;;;;;;;5.33;3.77;;;;;;;;;;5029373;28;20251;-73
2024/01/08 04:27:44;;;;;;;8.03;4.37;;;;;;;;;;5011066;28;20593;-72
2024/01/08 04:30:10;;;;;;;10.13;4.77;;;;;;;;;;5006740;28;20216;-72
2024/01/08 04:32:36;;;;;;;5.97;3.57;;;;;;;;;;5033779;28;20247;-72
2024/01/08 04:35:01;;;;;;;8.27;4.33;;;;;;;;;;5031429;28;20178;-73
2024/01/08 04:37:26;;;;;;;6.10;3.73;;;;;;;;;;5029959;28;20631;-73
2024/01/08 04:39:52;;;;;;;6.83;4.03;;;;;;;;;;5029598;28;20179;-72
2024/01/08 04:42:17;;;;;;;6.47;3.90;;;;;;;;;;5030038;28;20285;-72
2024/01/08 04:44:42;;;;;;;5.13;3.73;;;;;;;;;;5009739;28;20181;-73
2024/01/08 04:47:07;;;;;;;4.97;3.37;;;;;;;;;;5009005;28;20715;-72
2024/01/08 04:49:33;;;;;;;6.70;3.63;;;;;;;;;;5029620;28;20269;-73
2024/01/08 04:51:58;;;;;;;6.30;3.37;;;;;;;;;;5010904;28;20268;-72
2024/01/08 04:54:23;;;;;;;4.67;3.17;;;;;;;;;;5010633;28;20204;-72
2024/01/08 04:56:48;;;;;;;7.50;4.13;;;;;;;;;;5030006;28;20357;-72
2024/01/08 04:59:14;;;;;;;5.90;3.87;;;;;;;;;;5029440;28;20192;-71
2024/01/08 05:01:39;;;;;;;6.30;4.13;;;;;;;;;;5027516;28;20677;-72
2024/01/08 05:04:04;;;;;;;6.53;3.87;;;;;;;;;;5010878;28;20182;-72
2024/01/08 05:06:29;;;;;;;7.63;3.77;;;;;;;;;;5031838;28;20182;-72
2024/01/08 05:08:55;;;;;;;5.67;3.80;;;;;;;;;;5029323;28;20220;-72
2024/01/08 05:11:20;;;;;;;8.67;4.40;;;;;;;;;;5030384;28;20214;-72
2024/01/08 05:13:45;;;;;;;5.73;3.80;;;;;;;;;;5026463;28;20183;-72
2024/01/08 05:16:10;;;;;;;8.60;4.20;;;;;;;;;;5029041;28;20575;-72
2024/01/08 05:18:36;;;;;;;7.00;4.60;;;;;;;;;;5026825;28;20186;-71
2024/01/08 05:21:02;;;;;;;7.10;4.43;;;;;;;;;;5029263;28;20585;-72
2024/01/08 05:23:27;;;;;;;7.20;3.80;;;;;;;;;;5027354;28;20723;-72
2024/01/08 05:25:53;;;;;;;8.97;4.67;;;;;;;;;;5010457;28;20185;-71
2024/01/08 05:28:18;;;;;;;7.57;4.10;;;;;;;;;;5027399;28;20206;-71
2024/01/08 05:30:43;;;;;;;6.90;4.37;;;;;;;;;;5026443;28;20213;-72
2024/01/08 05:33:08;;;;;;;6.70;3.87;;;;;;;;;;5028892;28;20585;-71
2024/01/08 05:35:35;;;;;;;7.13;4.60;;;;;;;;;;5028858;28;20174;-72
2024/01/08 05:38:01;;;;;;;8.17;4.90;;;;;;;;;;5024994;28;20197;-72
2024/01/08 05:40:27;;;;;;;8.90;4.77;;;;;;;;;;5027929;28;20275;-72
2024/01/08 05:42:52;;;;;;;10.00;5.53;;;;;;;;;;5023126;28;20721;-73
2024/01/08 05:45:18;;;;;;;8.23;4.97;;;;;;;;;;5028722;28;20212;-71
2024/01/08 05:47:44;;;;;;;7.50;4.97;;;;;;;;;;5010630;28;20696;-71
2024/01/08 05:50:09;;;;;;;7.60;4.83;;;;;;;;;;5011553;28;20182;-71
2024/01/08 05:52:34;;;;;;;6.90;4.13;;;;;;;;;;5027731;28;20202;-71
2024/01/08 05:55:00;;;;;;;8.70;4.77;;;;;;;;;;5029004;28;20624;-71
2024/01/08 05:57:25;;;;;;;7.97;4.97;;;;;;;;;;5026575;28;20197;-73
2024/01/08 05:59:50;;;;;;;7.77;4.83;;;;;;;;;;5031767;28;20181;-73
2024/01/08 06:02:15;;;;;;;10.50;4.60;;;;;;;;;;5030379;28;20461;-73
2024/01/08 06:04:40;;;;;;;9.57;5.27;;;;;;;;;;5028919;28;20197;-73
2024/01/08 06:07:06;;;;;;;9.23;5.33;;;;;;;;;;5027318;28;20182;-73
2024/01/08 06:09:31;;;;;;;7.23;4.40;;;;;;;;;;5028322;28;20236;-74
2024/01/08 06:11:58;;;;;;;6.63;4.67;;;;;;;;;;5012019;28;20293;-73
2024/01/08 06:14:23;;;;;;;7.33;5.60;;;;;;;;;;5029595;28;20181;-72
2024/01/08 06:16:48;;;;;;;11.93;4.67;;;;;;;;;;5030401;28;20539;-72
2024/01/08 06:19:14;;;;;;;7.17;4.60;;;;;;;;;;5029908;28;20178;-73
2024/01/08 06:21:39;;;;;;;8.50;4.77;;;;;;;;;;5029488;28;20558;-72
2024/01/08 06:24:04;;;;;;;9.40;6.37;;;;;;;;;;5028818;28;20266;-72
2024/01/08 06:26:31;;;;;;;9.00;5.23;;;;;;;;;;5027344;28;20261;-72
2024/01/08 06:28:56;;;;;;;9.57;5.37;;;;;;;;;;5011208;28;20272;-72
2024/01/08 06:31:21;;;;;;;11.67;5.53;;;;;;;;;;5032732;28;20685;-71
2024/01/08 06:33:46;;;;;;;8.50;4.70;;;;;;;;;;5032968;28;20183;-71
2024/01/08 06:36:12;;;;;;;9.07;5.37;;;;;;;;;;5033201;28;20247;-72
2024/01/08 06:38:37;;;;;;;11.03;5.63;;;;;;;;;;5033277;28;20243;-72
2024/01/08 06:41:02;;;;;;;8.00;4.80;;;;;;;;;;5031459;28;20210;-72
2024/01/08 06:43:27;;;;;;;7.63;4.53;;;;;;;;;;5033269;28;20178;-73
2024/01/08 06:45:52;;;;;;;8.00;4.60;;;;;;;;;;5033792;28;20217;-72
2024/01/08 06:48:18;;;;;;;7.63;4.37;;;;;;;;;;5033391;28;20300;-72
2024/01/08 06:50:43;;;;;;;8.43;4.73;;;;;;;;;;5035334;28;20194;-72
2024/01/08 06:53:08;;;;;;;7.40;5.57;;;;;;;;;;5038160;28;20224;-72
2024/01/08 06:55:33;;;;;;;10.47;5.00;;;;;;;;;;5033020;28;20178;-72
2024/01/08 06:57:59;;;;;;;7.13;4.90;;;;;;;;;;5032089;28;20278;-72
2024/01/08 07:00:26;;;;;;;8.23;5.00;;;;;;;;;;5032244;28;20293;-73
2024/01/08 07:02:51;;;;;;;7.53;4.73;;;;;;;;;;5032907;28;20178;-71
2024/01/08 07:05:18;;;;;;;7.63;4.70;;;;;;;;;;5032781;28;20700;-72
2024/01/08 07:07:43;;;;;;;6.47;4.33;;;;;;;;;;5032782;28;20206;-72
2024/01/08 07:10:08;;;;;;;7.27;4.87;;;;;;;;;;5033100;28;20700;-73
2024/01/08 07:12:34;;;;;;;6.10;4.30;;;;;;;;;;5032614;28;20186;-73
2024/01/08 07:14:59;;;;;;;9.30;5.30;;;;;;;;;;5031835;28;20186;-72
2024/01/08 07:17:24;;;;;;;7.20;4.67;;;;;;;;;;5032852;28;20182;-72
2024/01/08 07:19:50;;;;;;;7.23;4.57;;;;;;;;;;5032824;28;20289;-72
2024/01/08 07:22:15;;;;;;;6.73;4.73;;;;;;;;;;5015009;28;20206;-71
2024/01/08 07:24:40;;;;;;;7.70;4.80;;;;;;;;;;5031935;28;20213;-73
2024/01/08 07:27:05;;;;;;;7.03;5.10;;;;;;;;;;5032120;28;20184;-72
2024/01/08 07:29:31;;;;;;;10.20;5.13;;;;;;;;;;5031406;28;20669;-72
2024/01/08 07:31:57;;;;;;;7.63;4.50;;;;;;;;;;5032062;28;20277;-72
2024/01/08 07:34:22;;;;;;;8.23;5.03;;;;;;;;;;5032488;28;20261;-71
2024/01/08 07:36:47;;;;;;;7.50;4.27;;;;;;;;;;5027205;28;20615;-72
2024/01/08 07:39:15;;;;;;;7.43;4.50;;;;;;;;;;5032264;28;20205;-72
2024/01/08 07:41:41;;;;;;;6.77;3.90;;;;;;;;;;5029543;28;20233;-72
2024/01/08 07:44:06;;;;;;;6.93;4.10;;;;;;;;;;5031944;28;20205;-72
2024/01/08 07:46:32;;;;;;;7.90;4.97;;;;;;;;;;5031317;28;20229;-72
2024/01/08 07:48:58;;;;;;;7.10;3.97;;;;;;;;;;5014759;28;20397;-72
2024/01/08 07:51:23;;;;;;;7.43;4.57;;;;;;;;;;5032597;28;20284;-72
2024/01/08 07:53:50;;;;;;;6.90;4.13;;;;;;;;;;5036388;28;20321;-72
2024/01/08 07:56:15;;;;;;;6.00;3.77;;;;;;;;;;5031803;28;20174;-72
2024/01/08 07:58:40;;;;;;;5.53;4.10;;;;;;;;;;5029568;28;20178;-72
2024/01/08 08:01:07;;;;;;;6.37;3.73;;;;;;;;;;5030949;28;20256;-73
2024/01/08 08:03:32;;;;;;;7.77;3.90;;;;;;;;;;5032031;28;20189;-72
2024/01/08 08:06:00;;;;;;;8.83;4.00;;;;;;;;;;5031629;28;20265;-73
2024/01/08 08:08:25;;;;;;;6.60;4.13;;;;;;;;;;5014301;28;20555;-72
2024/01/08 08:10:50;;;;;;;7.63;4.23;;;;;;;;;;5013535;28;20240;-71
2024/01/08 08:13:16;;;;;;;8.07;4.23;;;;;;;;;;5030526;28;20225;-71
2024/01/08 08:15:41;;;;;;;5.57;3.53;;;;;;;;;;5031797;28;20253;-70
2024/01/08 08:18:07;;;;;;;5.20;3.80;;;;;;;;;;5031121;28;20236;-70
2024/01/08 08:20:32;;;;;;;6.87;3.87;;;;;;;;;;5031379;28;20571;-69
2024/01/08 08:22:59;;;;;;;6.07;3.93;;;;;;;;;;5031366;28;20182;-70
2024/01/08 08:25:25;;;;;;;5.33;3.23;;;;;;;;;;5013487;28;20600;-70
2024/01/08 08:27:50;;;;;;;6.77;3.80;;;;;;;;;;5013430;28;20198;-70
2024/01/08 08:30:16;;;;;;;5.60;3.37;;;;;;;;;;5030462;28;20922;-70
2024/01/08 08:32:41;;;;;;;6.03;3.60;;;;;;;;;;5012204;28;20598;-71
2024/01/08 08:35:08;;;;;;;5.97;3.90;;;;;;;;;;5028975;28;20182;-70
2024/01/08 08:37:33;;;;;;;4.23;2.83;;;;;;;;;;5030770;28;20261;-70
2024/01/08 08:39:59;;;;;;;3.83;2.67;;;;;;;;;;5031026;28;20265;-70
2024/01/08 08:42:24;;;;;;;6.13;3.23;;;;;;;;;;5030884;28;20266;-72
2024/01/08 08:44:49;;;;;;;4.87;2.80;;;;;;;;;;5030874;28;20605;-69
2024/01/08 08:47:14;;;;;;;6.67;3.50;;;;;;;;;;5011264;28;20665;-69
2024/01/08 08:49:39;;;;;;;4.83;3.20;;;;;;;;;;5028800;28;20179;-69
2024/01/08 08:52:05;;;;;;;5.80;3.23;;;;;;;;;;5029483;28;20202;-70
2024/01/08 08:54:30;;;;;;;6.10;3.27;;;;;;;;;;5030868;28;20182;-71
2024/01/08 08:56:55;;;;;;;4.97;3.27;;;;;;;;;;5030667;28;20186;-69
2024/01/08 08:59:20;;;;;;;4.83;2.67;;;;;;;;;;5031375;28;20519;-69
2024/01/08 09:01:48;;;;;;;3.93;3.03;;;;;;;;;;5012623;28;20229;-69
2024/01/08 09:04:13;;;;;;;5.40;2.83;;;;;;;;;;5011656;28;20174;-71
2024/01/08 09:06:38;;;;;;;4.17;2.77;;;;;;;;;;5028728;28;20228;-70
2024/01/08 09:09:03;;;;;;;4.40;3.20;;;;;;;;;;5012173;28;20725;-70
2024/01/08 09:11:29;;;;;;;4.63;3.50;;;;;;;;;;5011731;28;20210;-69
2024/01/08 09:13:54;;;;;;;5.90;3.90;;;;;;;;;;5028729;28;20197;-69
2024/01/08 09:16:20;;;;;;;5.40;3.93;;;;;;;;;;5030273;28;20171;-70
2024/01/08 09:18:45;;;;;;;6.07;4.10;;;;;;;;;;5030095;28;20221;-70
2024/01/08 09:21:11;;;;;;;5.40;3.40;;;;;;;;;;5012458;28;20236;-70
2024/01/08 09:23:36;;;;;;;5.07;3.33;;;;;;;;;;5033915;28;20185;-70
2024/01/08 09:26:02;;;;;;;6.47;3.20;;;;;;;;;;5012298;28;20236;-70
2024/01/08 09:28:27;;;;;;;8.00;3.33;;;;;;;;;;5029019;28;20563;-69
2024/01/08 09:30:53;;;;;;;6.33;3.47;;;;;;;;;;5029234;28;20229;-70
2024/01/08 09:33:18;;;;;;;5.63;3.63;;;;;;;;;;5030313;28;20232;-70
2024/01/08 09:35:43;;;;;;;6.73;3.77;;;;;;;;;;5030127;28;20253;-70
2024/01/08 09:38:09;;;;;;;7.20;4.23;;;;;;;;;;5030358;28;20352;-72
2024/01/08 09:40:34;;;;;;;5.63;3.67;;;;;;;;;;5030273;28;20198;-69
2024/01/08 09:43:00;;;;;;;7.03;3.57;;;;;;;;;;5029305;28;20190;-70
2024/01/08 09:45:26;;;;;;;5.93;3.43;;;;;;;;;;5028378;28;20178;-72
2024/01/08 09:47:52;;;;;;;4.50;3.20;;;;;;;;;;5029896;28;20284;-70
2024/01/08 09:50:17;;;;;;;6.97;3.73;;;;;;;;;;5030443;28;20337;-70
2024/01/08 09:52:43;;;;;;;6.37;3.60;;;;;;;;;;5030177;28;20661;-69
2024/01/08 09:55:08;;;;;;;5.77;3.73;;;;;;;;;;5030387;28;20181;-71
2024/01/08 09:57:34;;;;;;;5.70;3.53;;;;;;;;;;5030017;28;20178;-70
2024/01/08 09:59:59;;;;;;;6.20;3.60;;;;;;;;;;5028556;28;20273;-70
2024/01/08 10:02:24;;;;;;;6.20;4.10;;;;;;;;;;5033393;28;20180;-70
2024/01/08 10:04:49;;;;;;;7.33;4.20;;;;;;;;;;5030517;28;20201;-69
2024/01/08 10:07:15;;;;;;;7.67;4.13;;;;;;;;;;5033682;28;20174;-69
2024/01/08 10:09:40;;;;;;;7.10;4.00;;;;;;;;;;5033381;28;20672;-69
2024/01/08 10:12:10;;;;;;;7.60;3.60;;;;;;;;;;5033463;28;20549;-69
2024/01/08 10:14:35;;;;;;;5.97;3.80;;;;;;;;;;5012126;28;20177;-69
2024/01/08 10:17:00;;;;;;;5.83;4.13;;;;;;;;;;5031743;28;20558;-69
2024/01/08 10:19:27;;;;;;;5.70;3.07;;;;;;;;;;5032804;28;20183;-70
2024/01/08 10:22:08;;;;;;;7.30;4.50;;;;;;;;;;5032321;28;20198;-70
2024/01/08 10:24:34;;;;;;;5.37;3.23;;;;;;;;;;5032212;28;20653;-70
2024/01/08 10:26:59;;;;;;;6.97;3.80;;;;;;;;;;5034653;28;20189;-70
2024/01/08 10:29:25;;;;;;;6.70;3.90;;;;;;;;;;5032615;28;20194;-69
2024/01/08 10:31:50;;;;;;;6.03;4.03;;;;;;;;;;5031318;28;20195;-70
2024/01/08 10:34:16;;;;;;;7.87;4.07;;;;;;;;;;5033665;28;20174;-69
2024/01/08 10:36:41;;;;;;;4.43;3.50;;;;;;;;;;5031990;28;20271;-70
2024/01/08 10:39:08;;;;;;;7.20;3.90;;;;;;;;;;5032692;28;20183;-70
2024/01/08 10:41:33;;;;;;;6.20;3.57;;;;;;;;;;5015699;28;20233;-70
2024/01/08 10:43:58;;;;;;;9.20;4.33;;;;;;;;;;5014974;28;20225;-70
2024/01/08 10:46:27;;;;;;;6.13;4.33;;;;;;;;;;5031851;28;20275;-70
2024/01/08 10:48:52;;;;;;;7.40;3.60;;;;;;;;;;5032479;28;20263;-69
2024/01/08 10:51:18;;;;;;;5.43;3.33;;;;;;;;;;5033426;28;20198;-69
2024/01/08 10:53:44;;;;;;;6.03;3.53;;;;;;;;;;5028722;28;20179;-69
2024/01/08 10:56:11;;;;;;;6.30;4.23;;;;;;;;;;5034251;28;20174;-69
2024/01/08 10:58:36;;;;;;;5.03;3.60;;;;;;;;;;5014759;28;20271;-69
2024/01/08 11:01:02;;;;;;;4.50;3.27;;;;;;;;;;5013281;28;20253;-69
2024/01/08 11:03:28;;;;;;;5.70;3.57;;;;;;;;;;5013923;28;20178;-70
2024/01/08 11:05:54;;;;;;;6.13;3.23;;;;;;;;;;5031992;28;20186;-69
2024/01/08 11:08:22;;;;;;;3.60;2.80;;;;;;;;;;5033200;28;20210;-69
2024/01/08 11:10:49;;;;;;;4.67;3.20;;;;;;;;;;5017161;28;20610;-68
2024/01/08 11:13:14;;;;;;;4.53;3.00;;;;;;;;;;5032499;28;20716;-69
2024/01/08 11:15:41;;;;;;;5.33;3.43;;;;;;;;;;5031546;28;20183;-70
2024/01/08 11:18:22;;;;;;;5.10;3.33;;;;;;;;;;5031367;28;20194;-70
2024/01/08 11:20:49;;;;;;;4.70;3.27;;;;;;;;;;5032810;28;20234;-69
2024/01/08 11:23:33;;;;;;;5.40;3.77;;;;;;;;;;5032424;28;20190;-70
2024/01/08 11:26:02;;;;;;;6.30;4.07;;;;;;;;;;5012939;28;20662;-70
2024/01/08 11:28:29;;;;;;;4.40;3.20;;;;;;;;;;5028865;28;20202;-70
2024/01/08 11:31:12;;;;;;;5.90;3.77;;;;;;;;;;5031498;28;20204;-72
2024/01/08 11:33:44;;;;;;;6.83;3.27;;;;;;;;;;5031431;28;20175;-69
2024/01/08 11:36:14;;;;;;;6.53;3.60;;;;;;;;;;5031077;28;20186;-69
2024/01/08 11:38:40;;;;;;;7.03;4.13;;;;;;;;;;5014610;28;20221;-69
2024/01/08 11:41:05;;;;;;;8.77;3.57;;;;;;;;;;5032157;28;20643;-69
2024/01/08 11:43:31;;;;;;;5.70;3.80;;;;;;;;;;5031847;28;20186;-69
2024/01/08 11:45:56;;;;;;;6.33;3.17;;;;;;;;;;5013375;28;20269;-68
2024/01/08 11:48:21;;;;;;;6.33;3.97;;;;;;;;;;5029554;28;20202;-68
2024/01/08 11:50:46;;;;;;;6.37;3.83;;;;;;;;;;5032054;28;20186;-69
2024/01/08 11:53:12;;;;;;;7.70;4.10;;;;;;;;;;5031803;28;20183;-69
2024/01/08 11:55:39;;;;;;;4.30;3.57;;;;;;;;;;5031432;28;20173;-68
2024/01/08 11:58:04;;;;;;;4.63;3.40;;;;;;;;;;5030166;28;20188;-69
2024/01/08 12:00:30;;;;;;;4.93;3.67;;;;;;;;;;5031071;28;20285;-70
2024/01/08 12:03:02;;;;;;;5.80;3.10;;;;;;;;;;5030525;28;20481;-70
2024/01/08 12:05:27;;;;;;;4.63;2.93;;;;;;;;;;5029319;28;20178;-70
2024/01/08 12:07:53;;;;;;;4.47;3.40;;;;;;;;;;5013880;28;20205;-70
2024/01/08 12:10:18;;;;;;;4.50;3.17;;;;;;;;;;5029768;28;20740;-69
2024/01/08 12:12:44;;;;;;;4.13;2.70;;;;;;;;;;5031007;28;20210;-70
2024/01/08 12:15:09;;;;;;;5.47;2.90;;;;;;;;;;5031777;28;20300;-70
2024/01/08 12:17:35;;;;;;;5.33;3.07;;;;;;;;;;5033000;28;20653;-70
2024/01/08 12:20:01;;;;;;;3.93;3.00;;;;;;;;;;5013443;28;20208;-72
2024/01/08 12:22:27;;;;;;;4.20;3.00;;;;;;;;;;5013568;28;20197;-70
2024/01/08 12:24:55;;;;;;;4.70;3.23;;;;;;;;;;5030725;28;20178;-70
2024/01/08 12:27:21;;;;;;;3.97;3.10;;;;;;;;;;5011119;28;20182;-69
2024/01/08 12:29:47;;;;;;;4.63;3.37;;;;;;;;;;5031026;28;20597;-68
2024/01/08 12:32:15;;;;;;;3.27;2.33;;;;;;;;;;5030087;28;20280;-67
2024/01/08 12:34:41;;;;;;;4.00;2.63;;;;;;;;;;5031505;28;20253;-70
2024/01/08 12:37:07;;;;;;;4.47;2.60;;;;;;;;;;5031214;28;20553;-69
2024/01/08 12:39:35;;;;;;;4.37;2.87;;;;;;;;;;5031345;28;20186;-68
2024/01/08 12:42:02;;;;;;;5.97;3.30;;;;;;;;;;5032235;28;20244;-69
2024/01/08 12:44:31;;;;;;;4.40;2.87;;;;;;;;;;5029752;28;20194;-69
2024/01/08 12:46:56;;;;;;;6.33;2.97;;;;;;;;;;5029811;28;20217;-69
2024/01/08 12:49:23;;;;;;;5.87;3.23;;;;;;;;;;5030613;28;20217;-69
2024/01/08 12:51:48;;;;;;;5.03;3.00;;;;;;;;;;5013392;28;20710;-68
2024/01/08 12:54:13;;;;;;;4.07;2.90;;;;;;;;;;5030874;28;20201;-69
2024/01/08 12:56:39;;;;;;;3.43;2.73;;;;;;;;;;5030004;28;20201;-69
2024/01/08 12:59:04;;;;;;;4.53;2.60;;;;;;;;;;5030970;28;20658;-70
2024/01/08 13:01:30;;;;;;;3.60;2.80;;;;;;;;;;5028773;28;20214;-68
2024/01/08 13:03:55;;;;;;;4.83;2.77;;;;;;;;;;5011644;28;20316;-68
2024/01/08 13:06:22;;;;;;;3.90;2.67;;;;;;;;;;5030607;28;20201;-70
2024/01/08 13:08:48;;;;;;;7.23;3.40;;;;;;;;;;5030629;28;20218;-70
2024/01/08 13:11:13;;;;;;;5.60;3.47;;;;;;;;;;5030443;28;20209;-70
2024/01/08 13:13:38;;;;;;;4.20;2.60;;;;;;;;;;5030989;28;20190;-69
2024/01/08 13:16:04;;;;;;;4.63;2.97;;;;;;;;;;5030380;28;20268;-70
2024/01/08 13:18:29;;;;;;;5.27;2.73;;;;;;;;;;5029356;28;20186;-70
2024/01/08 13:20:54;;;;;;;7.83;4.27;;;;;;;;;;5030715;28;20364;-69
2024/01/08 13:23:19;;;;;;;7.03;3.63;;;;;;;;;;5030525;28;20244;-69
2024/01/08 13:25:45;;;;;;;6.13;3.67;;;;;;;;;;5029674;28;20174;-70
2024/01/08 13:28:10;;;;;;;7.43;3.87;;;;;;;;;;5030426;28;20234;-68
2024/01/08 13:30:35;;;;;;;9.00;4.40;;;;;;;;;;5028280;28;20233;-70
2024/01/08 13:33:00;;;;;;;6.63;3.27;;;;;;;;;;5035293;28;20269;-70
2024/01/08 13:35:25;;;;;;;7.33;4.13;;;;;;;;;;5030704;28;20180;-71
2024/01/08 13:37:51;;;;;;;7.93;4.73;;;;;;;;;;5030858;28;20600;-69
2024/01/08 13:40:20;;;;;;;5.37;3.93;;;;;;;;;;5033234;28;20213;-71
2024/01/08 13:42:49;;;;;;;10.93;5.23;;;;;;;;;;5016783;28;20178;-69
2024/01/08 13:45:15;;;;;;;3.57;2.60;;;;;;;;;;5036011;28;20204;-70
2024/01/08 13:47:40;;;;;;;3.83;3.13;;;;;;;;;;5032432;28;20194;-70
2024/01/08 13:50:07;;;;;;;5.23;2.80;;;;;;;;;;5029701;28;20175;-71
2024/01/08 13:52:32;;;;;;;3.23;2.40;;;;;;;;;;5032663;28;20170;-69
2024/01/08 13:54:57;;;;;;;2.93;2.30;;;;;;;;;;5016381;28;20672;-71
2024/01/08 13:57:22;;;;;;;3.80;2.30;;;;;;;;;;5034477;28;20210;-69
2024/01/08 13:59:48;;;;;;;4.93;2.57;;;;;;;;;;5016850;28;21226;-69
2024/01/08 14:02:13;;;;;;;2.90;2.23;;;;;;;;;;5013880;28;20564;-70
2024/01/08 14:04:38;;;;;;;3.00;2.07;;;;;;;;;;5034203;28;20529;-69
2024/01/08 14:07:03;;;;;;;4.00;2.53;;;;;;;;;;5033571;28;20174;-69
2024/01/08 14:09:28;;;;;;;2.80;2.20;;;;;;;;;;5033952;28;20631;-69
2024/01/08 14:11:54;;;;;;;4.57;2.20;;;;;;;;;;4995517;23;1098626;-65
2024/01/08 14:14:19;;;;;;;3.07;2.03;;;;;;;;;;5019705;28;20191;-67
2024/01/08 14:16:44;;;;;;;3.73;2.00;;;;;;;;;;5025944;28;20574;-66
2024/01/08 14:19:10;;;;;;;3.37;2.47;;;;;;;;;;5032283;28;20194;-67
2024/01/08 14:21:35;;;;;;;3.67;2.10;;;;;;;;;;5022222;28;20565;-67
2024/01/08 14:24:00;;;;;;;3.70;1.80;;;;;;;;;;5007684;28;20505;-67
2024/01/08 14:26:25;;;;;;;3.03;2.00;;;;;;;;;;5008892;28;20601;-67
2024/01/08 14:28:50;;;;;;;3.80;2.17;;;;;;;;;;5012757;28;20214;-67
2024/01/08 14:31:16;;;;;;;4.77;2.90;;;;;;;;;;5011561;28;20214;-67
2024/01/08 14:33:41;;;;;;;5.00;2.90;;;;;;;;;;5012922;28;20233;-66